Pride Of Burgundy — MQSQ9 — position and weather

sailwx.info

Track history (hours):
 
Tides and Currents Weather Stations Pressure Air Temp Water Temp Dewpoint Dewpoint Depression Visibility Wind Speed Wind Dir Waves Ship Positions

Pride Of Burgundy

Operator: P & O Ferries

Last reported at 2018-Sep-19 03:30 UTC. Time now 2018-Sep-19 03:42 UTC.
Position N 51°07' E 001°20'.

Length 180 m; draft 6.2 m.

Type: Passenger vessel. MMSI: 232001470.

Date/timePositionNaut miles runAvg speedWind from/ knotsBaromVisibWave heightAir tempDewpointWater temp
2018-Sep-19 03:30N 51°07' E 001°20'0 0.2
2018-Sep-19 03:02N 51°07' E 001°20'0 2.2
2018-Sep-19 03:00N 51°07' E 001°20'612.7
2018-Sep-19 02:30N 51°06' E 001°30'612.3
2018-Sep-19 02:03N 51°02' E 001°37'113.5
2018-Sep-19 02:00N 51°02' E 001°38'815.7
2018-Sep-19 01:30N 50°58' E 001°49'1 3.3
2018-Sep-19 01:03N 50°58' E 001°51'0 0.0
2018-Sep-19 01:00N 50°58' E 001°51'0 0.0
2018-Sep-19 00:30N 50°58' E 001°51'0 0.0
2018-Sep-19 00:03N 50°58' E 001°51'0 0.0
2018-Sep-19 00:00N 50°58' E 001°51'0 0.0
2018-Sep-18 23:30N 50°58' E 001°51'0 0.0
2018-Sep-18 23:03N 50°58' E 001°51'0 0.0
2018-Sep-18 23:00N 50°58' E 001°51'0 0.0
2018-Sep-18 22:30N 50°58' E 001°51'0 0.0
2018-Sep-18 22:03N 50°58' E 001°51'0 0.0
2018-Sep-18 22:00N 50°58' E 001°51'0 0.2
2018-Sep-18 21:30N 50°58' E 001°51'715.5
2018-Sep-18 21:04N 50°59' E 001°40'120.0
2018-Sep-18 21:00N 50°60' E 001°39'918.9
2018-Sep-18 20:30N 51°05' E 001°27'510.0
2018-Sep-18 20:04N 51°07' E 001°20'0 0.1
2018-Sep-18 20:00N 51°07' E 001°20'0 0.0
2018-Sep-18 19:30N 51°07' E 001°20'2 4.2
2018-Sep-18 19:03N 51°07' E 001°23'110.6
2018-Sep-18 19:00N 51°07' E 001°24'917.9
2018-Sep-18 18:30N 51°03' E 001°36'817.9
2018-Sep-18 18:03N 50°58' E 001°47'117.0
2018-Sep-18 18:00N 50°58' E 001°48'2 3.6
2018-Sep-18 17:30N 50°58' E 001°51'0 0.0
2018-Sep-18 17:03N 50°58' E 001°51'0 0.0
2018-Sep-18 17:00N 50°58' E 001°51'713.7
2018-Sep-18 16:30N 50°59' E 001°40'919.6
2018-Sep-18 16:04N 51°04' E 001°29'119.6
2018-Sep-18 16:01N 51°04' E 001°27'610.5
2018-Sep-18 15:29N 51°07' E 001°20'0 0.0
2018-Sep-18 15:02N 51°07' E 001°20'0 0.0
2018-Sep-18 15:00N 51°07' E 001°20'9 9.0
2018-Sep-18 14:03N 51°05' E 001°33'119.0
2018-Sep-18 14:00N 51°04' E 001°34'918.2
2018-Sep-18 13:30N 50°58' E 001°45'4 9.1
2018-Sep-18 13:03N 50°58' E 001°52'0 0.0
2018-Sep-18 13:00N 50°58' E 001°52'0 0.0
2018-Sep-18 12:30N 50°58' E 001°52'0 1.1
2018-Sep-18 12:03N 50°58' E 001°51'0 7.3
2018-Sep-18 12:00N 50°58' E 001°50'815.6
2018-Sep-18 11:31N 50°59' E 001°38'919.5
2018-Sep-18 11:03N 51°04' E 001°26'119.8
2018-Sep-18 11:01N 51°04' E 001°25'4 8.4
2018-Sep-18 10:30N 51°07' E 001°20'0 0.0
2018-Sep-18 10:03N 51°07' E 001°20'0 0.0
2018-Sep-18 10:00N 51°07' E 001°20'0 0.2
2018-Sep-18 09:30N 51°07' E 001°20'3 7.3
2018-Sep-18 09:03N 51°08' E 001°25'0 0.5
2018-Sep-18 09:00N 51°08' E 001°25'0 0.6
2018-Sep-18 08:30N 51°08' E 001°25'1 2.5
2018-Sep-18 08:03N 51°09' E 001°26'112.2
2018-Sep-18 08:00N 51°08' E 001°27'612.7
2018-Sep-18 07:30N 51°04' E 001°34'817.0
2018-Sep-18 07:03N 50°59' E 001°44'118.3
2018-Sep-18 07:00N 50°58' E 001°45'4 8.0
2018-Sep-18 06:30N 50°58' E 001°51'0 0.0
2018-Sep-18 06:03N 50°58' E 001°51'0 0.0
2018-Sep-18 06:00N 50°58' E 001°51'2 3.3
2018-Sep-18 05:30N 50°58' E 001°48'919.6
2018-Sep-18 05:03N 51°01' E 001°35'119.5
2018-Sep-18 05:00N 51°01' E 001°34'1019.1
2018-Sep-18 04:30N 51°07' E 001°21'1 2.2
2018-Sep-18 04:03N 51°07' E 001°20'0 0.1
2018-Sep-18 04:00N 51°07' E 001°20'0 0.0
2018-Sep-18 03:30N 51°07' E 001°20'1 3.3
2018-Sep-18 03:03N 51°07' E 001°22'118.6
2018-Sep-18 03:00N 51°06' E 001°24'713.7
2018-Sep-18 02:30N 51°03' E 001°33'613.1
2018-Sep-18 02:03N 50°59' E 001°40'113.4
2018-Sep-18 02:00N 50°59' E 001°41'612.2
2018-Sep-18 01:30N 50°58' E 001°51'0 0.5
2018-Sep-18 01:03N 50°58' E 001°51'0 0.0
2018-Sep-18 01:00N 50°58' E 001°51'0 0.0
2018-Sep-18 00:30N 50°58' E 001°51'0 0.0
2018-Sep-18 00:03N 50°58' E 001°51'0 0.0
2018-Sep-18 00:00N 50°58' E 001°51'0 0.0
2018-Sep-17 23:30N 50°58' E 001°51'0 0.0
2018-Sep-17 23:03N 50°58' E 001°51'0 0.0
2018-Sep-17 23:01N 50°58' E 001°51'0 0.9
2018-Sep-17 22:30N 50°58' E 001°52'0 0.4
2018-Sep-17 22:03N 50°58' E 001°52'0 0.0
2018-Sep-17 22:00N 50°58' E 001°52'0 0.0
2018-Sep-17 21:30N 50°58' E 001°52'0 0.0
2018-Sep-17 21:03N 50°58' E 001°52'0 0.0
2018-Sep-17 21:01N 50°58' E 001°52'0 0.0
2018-Sep-17 20:30N 50°58' E 001°52'0 0.0
2018-Sep-17 20:03N 50°58' E 001°52'0 3.1
2018-Sep-17 20:00N 50°58' E 001°52'0 0.9
2018-Sep-17 19:30N 50°58' E 001°51'816.8
2018-Sep-17 19:03N 50°59' E 001°39'120.5
2018-Sep-17 19:01N 50°59' E 001°37'918.9
2018-Sep-17 18:30N 51°05' E 001°26'4 9.7
2018-Sep-17 18:03N 51°07' E 001°20'0 0.0
2018-Sep-17 18:00N 51°07' E 001°20'0 0.0
2018-Sep-17 17:30N 51°07' E 001°20'3 5.8
2018-Sep-17 17:03N 51°07' E 001°24'118.7
2018-Sep-17 17:00N 51°06' E 001°26'1019.3
2018-Sep-17 16:30N 51°01' E 001°38'816.9
2018-Sep-17 16:03N 50°58' E 001°50'113.4
2018-Sep-17 16:00N 50°58' E 001°51'0 0.6
2018-Sep-17 15:30N 50°58' E 001°51'0 0.4
2018-Sep-17 15:03N 50°58' E 001°51'0 8.3
2018-Sep-17 15:00N 50°58' E 001°50'918.6
2018-Sep-17 14:31N 51°01' E 001°36'1019.5
2018-Sep-17 14:00N 51°06' E 001°23'2 4.3
2018-Sep-17 13:30N 51°07' E 001°20'0 0.0
2018-Sep-17 13:03N 51°07' E 001°20'0 0.1
2018-Sep-17 13:00N 51°07' E 001°20'5 9.6
2018-Sep-17 12:30N 51°06' E 001°27'919.9
2018-Sep-17 12:04N 51°02' E 001°40'119.5
2018-Sep-17 12:01N 51°01' E 001°41'713.9
2018-Sep-17 11:30N 50°58' E 001°51'0 0.0
2018-Sep-17 11:03N 50°58' E 001°51'0 0.0
2018-Sep-17 11:00N 50°58' E 001°51'0 0.0
2018-Sep-17 10:30N 50°58' E 001°51'512.1
2018-Sep-17 10:03N 50°58' E 001°42'118.5
2018-Sep-17 10:00N 50°58' E 001°41'1019.4
2018-Sep-17 09:30N 51°03' E 001°27'613.8
2018-Sep-17 09:03N 51°07' E 001°20'0 0.0
2018-Sep-17 09:00N 51°07' E 001°20'0 0.0
2018-Sep-17 08:31N 51°07' E 001°20'2 5.3
2018-Sep-17 08:03N 51°07' E 001°24'115.9
2018-Sep-17 08:00N 51°07' E 001°25'1019.5
2018-Sep-17 07:30N 51°01' E 001°38'818.3
2018-Sep-17 07:03N 50°58' E 001°50'111.1
2018-Sep-17 07:00N 50°58' E 001°51'0 0.9
2018-Sep-17 06:30N 50°58' E 001°52'0 0.0
2018-Sep-17 06:03N 50°58' E 001°52'0 0.0
2018-Sep-17 06:00N 50°58' E 001°52'0 0.0
2018-Sep-17 05:28N 50°58' E 001°52'0 0.0
2018-Sep-17 05:03N 50°58' E 001°52'0 0.0
2018-Sep-17 05:00N 50°58' E 001°52'0 0.0
2018-Sep-17 04:28N 50°58' E 001°52'0 0.0
2018-Sep-17 04:03N 50°58' E 001°52'0 0.0
2018-Sep-17 04:00N 50°58' E 001°52'0 0.0
2018-Sep-17 03:30N 50°58' E 001°52'0 0.0
2018-Sep-17 03:03N 50°58' E 001°52'0 0.0
2018-Sep-17 03:00N 50°58' E 001°52'0 0.0
2018-Sep-17 02:30N 50°58' E 001°52'0 0.0
2018-Sep-17 02:03N 50°58' E 001°52'0 0.0
2018-Sep-17 02:00N 50°58' E 001°52'0 0.0
2018-Sep-17 01:30N 50°58' E 001°52'0 0.0
2018-Sep-17 01:03N 50°58' E 001°52'0 0.0
2018-Sep-17 01:00N 50°58' E 001°52'0 0.0
2018-Sep-17 00:30N 50°58' E 001°52'0 0.0
2018-Sep-17 00:03N 50°58' E 001°52'0 0.0
2018-Sep-17 00:00N 50°58' E 001°52'0 0.0
2018-Sep-16 23:30N 50°58' E 001°52'0 0.0
2018-Sep-16 23:03N 50°58' E 001°52'0 0.0
2018-Sep-16 23:00N 50°58' E 001°52'0 0.0
2018-Sep-16 22:30N 50°58' E 001°52'0 0.0
2018-Sep-16 22:03N 50°58' E 001°52'0 0.0
2018-Sep-16 22:00N 50°58' E 001°52'0 0.0
2018-Sep-16 21:30N 50°58' E 001°52'0 0.0
2018-Sep-16 21:03N 50°58' E 001°52'0 0.0
2018-Sep-16 21:00N 50°58' E 001°52'0 0.0
2018-Sep-16 20:30N 50°58' E 001°52'0 0.0
2018-Sep-16 20:03N 50°58' E 001°52'0 0.0
2018-Sep-16 20:00N 50°58' E 001°52'0 0.0
2018-Sep-16 19:30N 50°58' E 001°52'511.8
2018-Sep-16 19:04N 50°58' E 001°43'118.4
2018-Sep-16 19:01N 50°59' E 001°42'917.9
2018-Sep-16 18:31N 51°04' E 001°30'715.6
2018-Sep-16 18:03N 51°07' E 001°20'0 0.0
2018-Sep-16 18:00N 51°07' E 001°20'0 0.0
2018-Sep-16 17:30N 51°07' E 001°20'2 5.5
2018-Sep-16 17:03N 51°07' E 001°24'118.0
2018-Sep-16 17:00N 51°07' E 001°25'918.8
2018-Sep-16 16:30N 51°01' E 001°38'817.0
2018-Sep-16 16:03N 50°58' E 001°49'116.2
2018-Sep-16 16:00N 50°58' E 001°50'1 1.4
2018-Sep-16 15:30N 50°58' E 001°51'0 0.0
2018-Sep-16 15:03N 50°58' E 001°51'0 0.0
2018-Sep-16 15:00N 50°58' E 001°51'4 8.5
2018-Sep-16 14:30N 50°58' E 001°44'1817.9
2018-Sep-16 13:30N 51°07' E 001°20'0 0.0
2018-Sep-16 13:03N 51°07' E 001°20'0 0.0
2018-Sep-16 13:00N 51°07' E 001°20'2 3.9
2018-Sep-16 12:30N 51°07' E 001°23'920.0
2018-Sep-16 12:03N 51°02' E 001°36'120.3
2018-Sep-16 12:00N 51°02' E 001°37'918.1
2018-Sep-16 11:31N 50°58' E 001°50'1 1.3
2018-Sep-16 11:03N 50°58' E 001°51'0 0.0
2018-Sep-16 11:00N 50°58' E 001°51'0 0.0
2018-Sep-16 10:30N 50°58' E 001°51'512.1
2018-Sep-16 10:04N 50°58' E 001°42'118.4
2018-Sep-16 10:00N 50°58' E 001°41'1019.0
2018-Sep-16 09:31N 51°02' E 001°27'715.4
2018-Sep-16 09:03N 51°07' E 001°20'0 0.0
2018-Sep-16 09:00N 51°07' E 001°20'0 0.0
2018-Sep-16 08:29N 51°07' E 001°20'0 0.3
2018-Sep-16 08:03N 51°07' E 001°20'0 0.8
2018-Sep-16 08:00N 51°07' E 001°20'816.6
2018-Sep-16 07:30N 51°05' E 001°33'918.9
2018-Sep-16 07:03N 50°59' E 001°42'120.0
2018-Sep-16 07:00N 50°59' E 001°44'5 9.4
2018-Sep-16 06:31N 50°58' E 001°51'0 0.0
2018-Sep-16 06:03N 50°58' E 001°51'0 0.0
2018-Sep-16 06:00N 50°58' E 001°51'3 5.3
2018-Sep-16 05:30N 50°58' E 001°47'919.6
2018-Sep-16 05:03N 51°02' E 001°34'120.6
2018-Sep-16 05:00N 51°02' E 001°33'918.7
2018-Sep-16 04:31N 51°07' E 001°20'0 0.1
2018-Sep-16 04:03N 51°07' E 001°20'0 0.5
2018-Sep-16 04:00N 51°07' E 001°20'816.0
2018-Sep-16 03:30N 51°05' E 001°32'919.1
2018-Sep-16 03:03N 50°59' E 001°43'118.1
2018-Sep-16 03:01N 50°59' E 001°44'5 9.8
2018-Sep-16 02:30N 50°58' E 001°51'0 0.0
2018-Sep-16 02:03N 50°58' E 001°51'0 0.0
2018-Sep-16 02:00N 50°58' E 001°51'0 0.0
2018-Sep-16 01:30N 50°58' E 001°51'511.3
2018-Sep-16 01:04N 50°58' E 001°43'116.4
2018-Sep-16 01:00N 50°59' E 001°42'715.0
2018-Sep-16 00:31N 51°02' E 001°32'715.2
2018-Sep-16 00:03N 51°06' E 001°23'114.0
2018-Sep-16 00:00N 51°07' E 001°22'1 2.8
2018-Sep-15 23:29N 51°07' E 001°20'0 0.2
2018-Sep-15 23:03N 51°07' E 001°20'0 0.0
2018-Sep-15 23:00N 51°07' E 001°20'816.4
2018-Sep-15 22:31N 51°06' E 001°33'614.1
2018-Sep-15 22:03N 51°01' E 001°39'117.0
2018-Sep-15 22:00N 51°00' E 001°40'713.9
2018-Sep-15 21:30N 50°58' E 001°51'0 0.2
2018-Sep-15 21:03N 50°58' E 001°51'0 0.0
2018-Sep-15 21:00N 50°58' E 001°51'0 0.0
2018-Sep-15 20:30N 50°58' E 001°51'510.6
2018-Sep-15 20:03N 50°58' E 001°43'118.9
2018-Sep-15 20:01N 50°58' E 001°42'1019.3
2018-Sep-15 19:30N 51°04' E 001°29'715.1
2018-Sep-15 19:03N 51°07' E 001°20'0 0.0
2018-Sep-15 18:56N 51°07' E 001°20'0 0.0
2018-Sep-15 18:29N 51°07' E 001°20'0 0.0
2018-Sep-15 18:03N 51°07' E 001°20'0 0.0
2018-Sep-15 18:00N 51°07' E 001°20'0 0.0
2018-Sep-15 17:29N 51°07' E 001°20'2 5.1
2018-Sep-15 17:03N 51°07' E 001°24'117.8
2018-Sep-15 17:00N 51°07' E 001°25'918.1
2018-Sep-15 16:30N 51°02' E 001°37'817.4
2018-Sep-15 16:03N 50°58' E 001°48'117.3
2018-Sep-15 16:01N 50°58' E 001°49'1 2.5
2018-Sep-15 15:31N 50°58' E 001°51'0 0.0
2018-Sep-15 15:03N 50°58' E 001°51'915.2
2018-Sep-15 14:29N 50°58' E 001°37'919.1
2018-Sep-15 14:00N 51°04' E 001°26'510.2
2018-Sep-15 13:30N 51°07' E 001°20'0 0.0
2018-Sep-15 13:03N 51°07' E 001°20'0 0.0
2018-Sep-15 13:00N 51°07' E 001°20'4 7.2
2018-Sep-15 12:30N 51°06' E 001°25'919.7
2018-Sep-15 12:03N 51°01' E 001°37'119.7
2018-Sep-15 12:00N 51°01' E 001°39'816.4
2018-Sep-15 11:30N 50°58' E 001°51'0 0.2
2018-Sep-15 11:03N 50°58' E 001°51'0 0.0
2018-Sep-15 11:00N 50°58' E 001°51'0 0.3
2018-Sep-15 10:30N 50°58' E 001°51'715.4
2018-Sep-15 10:03N 50°59' E 001°40'118.0
2018-Sep-15 10:00N 50°59' E 001°38'1019.2
2018-Sep-15 09:30N 51°05' E 001°26'510.1
2018-Sep-15 09:03N 51°07' E 001°20'0 0.0
2018-Sep-15 09:00N 51°07' E 001°20'0 0.0
2018-Sep-15 08:30N 51°07' E 001°20'0 0.7
2018-Sep-15 08:03N 51°07' E 001°21'110.9
2018-Sep-15 08:00N 51°07' E 001°21'816.7
2018-Sep-15 07:30N 51°04' E 001°33'818.9
2018-Sep-15 07:03N 50°58' E 001°44'119.7
2018-Sep-15 07:00N 50°58' E 001°45'4 7.0
2018-Sep-15 06:31N 50°58' E 001°51'0 0.0
2018-Sep-15 06:03N 50°58' E 001°51'0 0.0
2018-Sep-15 06:00N 50°58' E 001°51'4 7.7
2018-Sep-15 05:30N 50°58' E 001°45'919.5
2018-Sep-15 05:03N 51°02' E 001°33'119.6
2018-Sep-15 05:00N 51°02' E 001°31'917.1
2018-Sep-15 04:30N 51°07' E 001°20'0 0.0
2018-Sep-15 04:03N 51°07' E 001°20'0 0.0
2018-Sep-15 04:00N 51°07' E 001°20'0 0.0
2018-Sep-15 03:30N 51°07' E 001°20'0 0.3
2018-Sep-15 03:03N 51°07' E 001°20'0 5.8
2018-Sep-15 03:00N 51°07' E 001°21'713.1
2018-Sep-15 02:30N 51°05' E 001°30'715.7
2018-Sep-15 02:04N 51°01' E 001°40'115.0
2018-Sep-15 02:00N 51°01' E 001°41'613.0
2018-Sep-15 01:30N 50°58' E 001°50'0 1.0
2018-Sep-15 01:03N 50°58' E 001°51'0 0.0
2018-Sep-15 01:00N 50°58' E 001°51'0 0.0
2018-Sep-15 00:30N 50°58' E 001°51'0 0.0
2018-Sep-15 00:03N 50°58' E 001°51'0 0.0
2018-Sep-15 00:00N 50°58' E 001°51'0 0.0
2018-Sep-14 23:31N 50°58' E 001°51'0 0.0
2018-Sep-14 23:03N 50°58' E 001°51'0 0.0
2018-Sep-14 23:00N 50°58' E 001°51'0 0.0
2018-Sep-14 22:30N 50°58' E 001°51'0 0.0
2018-Sep-14 22:03N 50°58' E 001°51'0 0.0
2018-Sep-14 22:00N 50°58' E 001°51'0 0.0
2018-Sep-14 21:30N 50°58' E 001°51'0 0.0
2018-Sep-14 21:04N 50°58' E 001°51'0 0.0
2018-Sep-14 21:01N 50°58' E 001°51'0 0.0
2018-Sep-14 20:31N 50°58' E 001°51'0 0.0
2018-Sep-14 20:04N 50°58' E 001°51'0 0.0
2018-Sep-14 20:00N 50°58' E 001°51'2 4.8
2018-Sep-14 19:30N 50°58' E 001°47'818.2
2018-Sep-14 19:04N 50°58' E 001°34'119.9
2018-Sep-14 19:01N 50°59' E 001°33'1019.4
2018-Sep-14 18:30N 51°06' E 001°23'2 5.4
2018-Sep-14 18:03N 51°07' E 001°20'0 0.0
2018-Sep-14 18:00N 51°07' E 001°20'0 0.2
2018-Sep-14 17:31N 51°07' E 001°20'614.3
2018-Sep-14 17:03N 51°08' E 001°30'117.0
2018-Sep-14 17:00N 51°08' E 001°32'815.1
2018-Sep-14 16:30N 51°01' E 001°39'715.7
2018-Sep-14 16:03N 50°58' E 001°49'115.2
2018-Sep-14 16:01N 50°58' E 001°50'1 1.4
2018-Sep-14 15:30N 50°58' E 001°51'0 0.0
2018-Sep-14 15:03N 50°58' E 001°51'0 1.8
2018-Sep-14 15:01N 50°58' E 001°51'917.3
2018-Sep-14 14:30N 51°00' E 001°38'1019.8
2018-Sep-14 14:01N 51°05' E 001°24'3 6.3
2018-Sep-14 13:30N 51°07' E 001°20'0 0.0
2018-Sep-14 13:03N 51°07' E 001°20'0 0.1
2018-Sep-14 13:00N 51°07' E 001°20'4 8.7
2018-Sep-14 12:31N 51°06' E 001°26'919.5
2018-Sep-14 12:04N 51°01' E 001°38'119.4
2018-Sep-14 12:01N 51°00' E 001°39'815.5
2018-Sep-14 11:30N 50°58' E 001°51'0 0.4
2018-Sep-14 11:03N 50°58' E 001°51'0 0.1
2018-Sep-14 11:00N 50°58' E 001°51'0 0.0
2018-Sep-14 10:30N 50°58' E 001°51'510.5
2018-Sep-14 10:04N 50°58' E 001°44'117.3
2018-Sep-14 10:01N 50°58' E 001°42'917.9
2018-Sep-14 09:31N 51°03' E 001°30'817.2
2018-Sep-14 09:03N 51°07' E 001°20'0 0.3
2018-Sep-14 09:00N 51°07' E 001°20'0 0.0
2018-Sep-14 08:30N 51°07' E 001°20'0 0.0
2018-Sep-14 08:03N 51°07' E 001°20'0 1.1
2018-Sep-14 08:00N 51°07' E 001°20'714.9
2018-Sep-14 07:30N 51°05' E 001°31'818.5
2018-Sep-14 07:03N 50°60' E 001°41'119.6
2018-Sep-14 07:00N 50°59' E 001°42'511.0
2018-Sep-14 06:30N 50°58' E 001°51'0 0.0
2018-Sep-14 06:03N 50°58' E 001°51'0 0.0
2018-Sep-14 06:00N 50°58' E 001°51'0 0.1
2018-Sep-14 05:30N 50°58' E 001°51'715.7
2018-Sep-14 05:04N 50°59' E 001°40'119.9
2018-Sep-14 05:00N 50°59' E 001°38'1019.7
2018-Sep-14 04:30N 51°05' E 001°25'4 9.2
2018-Sep-14 04:03N 51°07' E 001°20'0 0.0
2018-Sep-14 04:00N 51°07' E 001°20'0 0.0
2018-Sep-14 03:30N 51°07' E 001°20'0 0.0
2018-Sep-14 03:03N 51°07' E 001°20'0 2.1
2018-Sep-14 03:01N 51°07' E 001°20'612.8
2018-Sep-14 02:31N 51°05' E 001°30'716.5
2018-Sep-14 02:03N 51°01' E 001°39'116.3
2018-Sep-14 02:01N 51°00' E 001°40'713.9
2018-Sep-14 01:31N 50°58' E 001°51'0 0.5
2018-Sep-14 01:03N 50°58' E 001°51'0 0.0
2018-Sep-14 01:00N 50°58' E 001°51'0 0.0
2018-Sep-14 00:30N 50°58' E 001°51'0 0.0
2018-Sep-14 00:03N 50°58' E 001°51'0 0.0
2018-Sep-14 00:00N 50°58' E 001°51'0 0.0
2018-Sep-13 23:30N 50°58' E 001°51'0 0.0
2018-Sep-13 23:03N 50°58' E 001°51'0 0.0
2018-Sep-13 23:00N 50°58' E 001°51'0 0.0
2018-Sep-13 22:30N 50°58' E 001°51'0 0.0
2018-Sep-13 22:03N 50°58' E 001°51'0 0.0
2018-Sep-13 22:00N 50°58' E 001°51'0 0.0
2018-Sep-13 21:30N 50°58' E 001°51'0 0.0
2018-Sep-13 21:03N 50°58' E 001°51'0 0.0
2018-Sep-13 21:00N 50°58' E 001°51'0 0.0
2018-Sep-13 20:31N 50°58' E 001°51'0 0.0
2018-Sep-13 20:03N 50°58' E 001°51'0 0.0
2018-Sep-13 20:00N 50°58' E 001°51'0 0.5
2018-Sep-13 19:31N 50°58' E 001°51'715.6
2018-Sep-13 19:03N 50°59' E 001°40'119.4
2018-Sep-13 19:01N 50°60' E 001°38'1019.4
2018-Sep-13 18:31N 51°05' E 001°26'4 9.2
2018-Sep-13 18:03N 51°07' E 001°20'0 0.0
2018-Sep-13 18:00N 51°07' E 001°20'0 0.0
2018-Sep-13 17:30N 51°07' E 001°20'1 1.5
2018-Sep-13 17:04N 51°07' E 001°21'113.8
2018-Sep-13 17:00N 51°07' E 001°22'918.8
2018-Sep-13 16:31N 51°02' E 001°35'818.5
2018-Sep-13 16:04N 50°58' E 001°47'118.1
2018-Sep-13 16:00N 50°58' E 001°48'2 3.6
2018-Sep-13 15:30N 50°58' E 001°51'0 0.0
2018-Sep-13 15:03N 50°58' E 001°51'0 1.7
2018-Sep-13 15:00N 50°58' E 001°51'816.8
2018-Sep-13 14:30N 50°59' E 001°38'1019.3
2018-Sep-13 14:00N 51°04' E 001°25'5 9.0
2018-Sep-13 13:30N 51°07' E 001°20'0 0.0
2018-Sep-13 13:03N 51°07' E 001°20'0 0.0
2018-Sep-13 13:00N 51°07' E 001°20'4 7.2
2018-Sep-13 12:30N 51°06' E 001°25'919.3
2018-Sep-13 12:03N 51°01' E 001°37'119.2
2018-Sep-13 12:00N 51°01' E 001°38'816.9
2018-Sep-13 11:30N 50°58' E 001°51'0 0.9
2018-Sep-13 11:03N 50°58' E 001°52'0 0.0
2018-Sep-13 11:00N 50°58' E 001°52'0 0.1
2018-Sep-13 10:31N 50°58' E 001°52'613.4
2018-Sep-13 10:04N 50°58' E 001°42'117.1
2018-Sep-13 10:01N 50°59' E 001°41'918.3
2018-Sep-13 09:30N 51°03' E 001°28'614.4
2018-Sep-13 09:03N 51°07' E 001°20'0 1.2
2018-Sep-13 09:00N 51°07' E 001°20'0 0.0
2018-Sep-13 08:29N 51°07' E 001°20'0 0.0
2018-Sep-13 08:03N 51°07' E 001°20'0 0.0
2018-Sep-13 08:00N 51°07' E 001°20'612.2
2018-Sep-13 07:30N 51°05' E 001°29'919.6
2018-Sep-13 07:03N 50°60' E 001°40'121.1
2018-Sep-13 07:00N 50°59' E 001°42'611.9
2018-Sep-13 06:30N 50°58' E 001°51'0 0.0
2018-Sep-13 06:03N 50°58' E 001°51'0 0.0
2018-Sep-13 06:00N 50°58' E 001°51'1 2.6
2018-Sep-13 05:30N 50°58' E 001°49'817.8
2018-Sep-13 05:03N 51°01' E 001°37'119.5
2018-Sep-13 05:00N 51°01' E 001°36'917.9
2018-Sep-13 04:30N 51°06' E 001°24'3 5.8
2018-Sep-13 04:03N 51°07' E 001°20'0 0.0
2018-Sep-13 04:00N 51°07' E 001°20'0 0.0
2018-Sep-13 03:30N 51°07' E 001°20'0 1.1
2018-Sep-13 03:03N 51°07' E 001°21'0 8.9
2018-Sep-13 03:00N 51°07' E 001°21'713.9
2018-Sep-13 02:30N 51°04' E 001°31'715.9
2018-Sep-13 02:04N 51°00' E 001°41'116.3
2018-Sep-13 02:01N 50°60' E 001°42'611.6
2018-Sep-13 01:30N 50°58' E 001°51'0 0.2
2018-Sep-13 01:03N 50°58' E 001°51'0 0.0
2018-Sep-13 01:00N 50°58' E 001°51'0 0.0
2018-Sep-13 00:30N 50°58' E 001°51'0 0.0
2018-Sep-13 00:03N 50°58' E 001°51'0 0.0
2018-Sep-13 00:00N 50°58' E 001°51'0 0.0
2018-Sep-12 23:30N 50°58' E 001°51'0 0.0
2018-Sep-12 23:03N 50°58' E 001°51'0 0.0
2018-Sep-12 23:00N 50°58' E 001°51'0 0.0
2018-Sep-12 22:30N 50°58' E 001°51'0 0.0
2018-Sep-12 22:03N 50°58' E 001°51'0 0.0
2018-Sep-12 22:00N 50°58' E 001°51'0 0.0
2018-Sep-12 21:30N 50°58' E 001°51'0 0.0
2018-Sep-12 21:03N 50°58' E 001°51'0 0.0
2018-Sep-12 21:00N 50°58' E 001°51'0 0.0
2018-Sep-12 20:30N 50°58' E 001°51'0 0.0
2018-Sep-12 20:03N 50°58' E 001°51'0 0.0
2018-Sep-12 20:00N 50°58' E 001°51'2 4.8
2018-Sep-12 19:30N 50°58' E 001°47'817.5
2018-Sep-12 19:03N 51°00' E 001°35'119.1
2018-Sep-12 19:00N 51°01' E 001°34'917.8
2018-Sep-12 18:30N 51°06' E 001°23'2 4.6
2018-Sep-12 18:03N 51°07' E 001°20'0 0.0
2018-Sep-12 18:00N 51°07' E 001°20'0 0.2
2018-Sep-12 17:30N 51°07' E 001°20'816.8
2018-Sep-12 17:03N 51°04' E 001°31'119.6
2018-Sep-12 17:01N 51°04' E 001°32'1019.1
2018-Sep-12 16:30N 50°58' E 001°45'4 8.7
2018-Sep-12 16:03N 50°58' E 001°51'0 0.0
2018-Sep-12 16:00N 50°58' E 001°51'0 0.0
2018-Sep-12 15:30N 50°58' E 001°51'4 9.6
2018-Sep-12 15:03N 50°58' E 001°44'120.6
2018-Sep-12 15:01N 50°58' E 001°43'1020.0
2018-Sep-12 14:30N 51°03' E 001°29'714.2
2018-Sep-12 14:00N 51°07' E 001°20'0 0.0
2018-Sep-12 13:30N 51°07' E 001°20'0 0.1
2018-Sep-12 13:01N 51°07' E 001°20'0 3.5
2018-Sep-12 13:00N 51°07' E 001°20'714.0
2018-Sep-12 12:30N 51°04' E 001°30'919.0
2018-Sep-12 12:03N 50°60' E 001°42'118.3
2018-Sep-12 12:00N 50°59' E 001°43'611.4
2018-Sep-12 11:30N 50°58' E 001°52'0 0.0
2018-Sep-12 11:03N 50°58' E 001°52'0 0.0
2018-Sep-12 11:00N 50°58' E 001°52'0 0.7
2018-Sep-12 10:30N 50°58' E 001°51'715.1
2018-Sep-12 10:03N 50°59' E 001°40'117.7
2018-Sep-12 10:00N 50°59' E 001°39'918.7
2018-Sep-12 09:30N 51°05' E 001°27'511.3
2018-Sep-12 09:03N 51°07' E 001°20'0 0.0
2018-Sep-12 09:00N 51°07' E 001°20'0 0.0
2018-Sep-12 08:30N 51°07' E 001°20'0 0.1
2018-Sep-12 08:03N 51°07' E 001°20'0 1.0
2018-Sep-12 08:00N 51°07' E 001°20'817.0
2018-Sep-12 07:30N 51°04' E 001°32'919.1
2018-Sep-12 07:03N 50°59' E 001°43'120.4
2018-Sep-12 07:00N 50°58' E 001°44'4 8.2
2018-Sep-12 06:31N 50°58' E 001°51'0 0.0
2018-Sep-12 06:03N 50°58' E 001°51'0 0.0
2018-Sep-12 06:00N 50°58' E 001°51'3 5.9
2018-Sep-12 05:30N 50°58' E 001°46'818.1
2018-Sep-12 05:04N 50°59' E 001°34'119.4
2018-Sep-12 05:01N 51°00' E 001°32'1019.6
2018-Sep-12 04:31N 51°07' E 001°21'1 2.0
2018-Sep-12 04:03N 51°07' E 001°20'0 0.0
2018-Sep-12 04:00N 51°07' E 001°20'0 0.0
2018-Sep-12 03:30N 51°07' E 001°20'0 0.3
2018-Sep-12 03:03N 51°07' E 001°20'0 6.1
2018-Sep-12 03:00N 51°07' E 001°21'815.4
2018-Sep-12 02:31N 51°04' E 001°32'716.3
2018-Sep-12 02:04N 51°00' E 001°41'115.8
2018-Sep-12 02:00N 50°60' E 001°42'611.2
2018-Sep-12 01:30N 50°58' E 001°51'0 0.0
2018-Sep-12 01:04N 50°58' E 001°51'0 0.0
2018-Sep-12 01:01N 50°58' E 001°51'0 0.0
2018-Sep-12 00:31N 50°58' E 001°51'0 0.0
2018-Sep-12 00:04N 50°58' E 001°51'0 0.0
2018-Sep-12 00:00N 50°58' E 001°51'0 0.0
2018-Sep-11 23:30N 50°58' E 001°51'0 0.0
2018-Sep-11 23:03N 50°58' E 001°51'0 0.0
2018-Sep-11 23:00N 50°58' E 001°51'0 0.0
2018-Sep-11 22:30N 50°58' E 001°51'0 0.0
2018-Sep-11 22:03N 50°58' E 001°51'0 0.0
2018-Sep-11 22:00N 50°58' E 001°51'0 0.0
2018-Sep-11 21:30N 50°58' E 001°51'0 0.0
2018-Sep-11 21:03N 50°58' E 001°51'0 0.0
2018-Sep-11 21:01N 50°58' E 001°51'0 0.0
2018-Sep-11 20:30N 50°58' E 001°51'0 0.1
2018-Sep-11 20:04N 50°58' E 001°51'0 4.7
2018-Sep-11 20:00N 50°58' E 001°51'816.1
2018-Sep-11 19:31N 50°59' E 001°38'919.1
2018-Sep-11 19:03N 51°04' E 001°27'119.2
2018-Sep-11 19:00N 51°05' E 001°25'4 8.3
2018-Sep-11 18:29N 51°07' E 001°20'0 0.0
2018-Sep-11 17:59N 51°07' E 001°20'5 9.8
2018-Sep-11 17:30N 51°06' E 001°27'818.6
2018-Sep-11 17:03N 51°02' E 001°39'118.5
2018-Sep-11 17:00N 51°01' E 001°40'815.1
2018-Sep-11 16:31N 50°58' E 001°51'0 0.2
2018-Sep-11 16:03N 50°58' E 001°51'0 0.0
2018-Sep-11 16:00N 50°58' E 001°51'0 0.6
2018-Sep-11 15:30N 50°58' E 001°51'918.7
2018-Sep-11 15:03N 50°58' E 001°37'121.5
2018-Sep-11 15:00N 50°58' E 001°36'1314.1
2018-Sep-11 14:03N 51°07' E 001°20'0 0.0
2018-Sep-11 14:00N 51°07' E 001°20'0 0.0
2018-Sep-11 13:30N 51°07' E 001°20'1 2.4
2018-Sep-11 13:03N 51°07' E 001°22'115.5
2018-Sep-11 13:00N 51°07' E 001°23'816.6
2018-Sep-11 12:30N 51°03' E 001°35'817.0
2018-Sep-11 12:03N 50°58' E 001°44'116.2
2018-Sep-11 12:01N 50°58' E 001°45'4 7.6
2018-Sep-11 11:29N 50°58' E 001°52'0 0.0
2018-Sep-11 11:03N 50°58' E 001°52'0 0.0
2018-Sep-11 11:00N 50°58' E 001°52'2 5.0
2018-Sep-11 10:31N 50°58' E 001°48'818.8
2018-Sep-11 10:04N 51°01' E 001°35'119.2
2018-Sep-11 10:00N 51°02' E 001°34'918.6
2018-Sep-11 09:31N 51°07' E 001°22'1 2.5
2018-Sep-11 09:03N 51°07' E 001°20'0 0.0
2018-Sep-11 09:00N 51°07' E 001°20'0 0.0
2018-Sep-11 08:30N 51°07' E 001°20'2 3.4
2018-Sep-11 08:03N 51°07' E 001°22'0 9.1
2018-Sep-11 08:00N 51°07' E 001°23'816.9
2018-Sep-11 07:30N 51°03' E 001°35'919.2
2018-Sep-11 07:03N 50°58' E 001°46'119.3
2018-Sep-11 07:01N 50°58' E 001°47'2 4.5
2018-Sep-11 06:30N 50°58' E 001°51'0 0.0
2018-Sep-11 06:03N 50°58' E 001°51'0 0.2
2018-Sep-11 06:00N 50°58' E 001°51'2 4.9
2018-Sep-11 05:31N 50°58' E 001°47'817.8
2018-Sep-11 05:04N 51°01' E 001°35'119.2
2018-Sep-11 05:01N 51°01' E 001°34'918.9
2018-Sep-11 04:31N 51°07' E 001°22'1 2.5
2018-Sep-11 04:03N 51°07' E 001°20'0 0.0
2018-Sep-11 04:00N 51°07' E 001°20'0 0.0
2018-Sep-11 03:30N 51°07' E 001°20'0 0.3
2018-Sep-11 03:03N 51°07' E 001°20'0 2.2
2018-Sep-11 03:00N 51°07' E 001°20'815.5
2018-Sep-11 02:30N 51°05' E 001°32'715.9
2018-Sep-11 02:03N 51°00' E 001°40'115.6
2018-Sep-11 02:00N 50°60' E 001°41'612.9
2018-Sep-11 01:30N 50°58' E 001°51'0 0.0
2018-Sep-11 01:03N 50°58' E 001°51'0 0.0
2018-Sep-11 01:00N 50°58' E 001°51'0 0.0
2018-Sep-11 00:30N 50°58' E 001°51'0 0.0
2018-Sep-11 00:03N 50°58' E 001°51'0 0.0
2018-Sep-11 00:00N 50°58' E 001°51'0 0.0
2018-Sep-10 23:30N 50°58' E 001°51'0 0.0
2018-Sep-10 23:03N 50°58' E 001°51'0 0.0
2018-Sep-10 23:00N 50°58' E 001°51'0 0.0
2018-Sep-10 22:30N 50°58' E 001°51'0 0.0
2018-Sep-10 22:03N 50°58' E 001°51'0 0.0
2018-Sep-10 22:00N 50°58' E 001°51'0 0.0
2018-Sep-10 21:30N 50°58' E 001°51'0 0.0
2018-Sep-10 21:03N 50°58' E 001°51'0 0.0
2018-Sep-10 21:00N 50°58' E 001°51'0 0.0
2018-Sep-10 20:30N 50°58' E 001°51'0 0.0
2018-Sep-10 20:03N 50°58' E 001°51'0 0.0
2018-Sep-10 20:00N 50°58' E 001°51'3 5.0
2018-Sep-10 19:30N 50°58' E 001°47'817.6
2018-Sep-10 19:03N 50°60' E 001°35'118.5
2018-Sep-10 19:00N 51°00' E 001°33'1019.1
2018-Sep-10 18:30N 51°07' E 001°22'2 3.4
2018-Sep-10 18:02N 51°07' E 001°20'0 0.0
2018-Sep-10 18:00N 51°07' E 001°20'0 0.0
2018-Sep-10 17:30N 51°07' E 001°20'612.4
2018-Sep-10 17:03N 51°06' E 001°29'119.0
2018-Sep-10 17:00N 51°05' E 001°30'1019.1
2018-Sep-10 16:31N 50°60' E 001°42'613.2
2018-Sep-10 16:03N 50°58' E 001°51'0 0.0
2018-Sep-10 16:00N 50°58' E 001°51'0 0.0
2018-Sep-10 15:30N 50°58' E 001°51'3 7.4
2018-Sep-10 15:03N 50°58' E 001°46'118.6
2018-Sep-10 15:00N 50°58' E 001°44'1819.0
2018-Sep-10 14:04N 51°07' E 001°20'0 0.4
2018-Sep-10 14:01N 51°07' E 001°20'0 0.0
2018-Sep-10 13:30N 51°07' E 001°20'0 0.0
2018-Sep-10 13:03N 51°07' E 001°20'0 0.0
2018-Sep-10 13:00N 51°07' E 001°20'4 8.7
2018-Sep-10 12:30N 51°06' E 001°27'817.9
2018-Sep-10 12:03N 51°02' E 001°38'117.7
2018-Sep-10 12:00N 51°01' E 001°39'815.5
2018-Sep-10 11:30N 50°58' E 001°50'1 2.4
2018-Sep-10 11:02N 50°58' E 001°52'0 0.0
2018-Sep-10 11:00N 50°58' E 001°52'0 0.0
2018-Sep-10 10:30N 50°58' E 001°52'410.1
2018-Sep-10 10:03N 50°58' E 001°45'120.7
2018-Sep-10 10:00N 50°58' E 001°43'1020.0
2018-Sep-10 09:30N 51°03' E 001°29'715.5
2018-Sep-10 09:03N 51°07' E 001°20'0 0.0
2018-Sep-10 08:59N 51°07' E 001°20'0 0.0
2018-Sep-10 08:29N 51°07' E 001°20'0 0.0
2018-Sep-10 08:02N 51°07' E 001°20'0 0.5
2018-Sep-10 08:01N 51°07' E 001°20'714.9
2018-Sep-10 07:30N 51°04' E 001°31'920.0
2018-Sep-10 07:04N 50°59' E 001°43'120.2
2018-Sep-10 07:00N 50°59' E 001°44'4 8.9
2018-Sep-10 06:31N 50°58' E 001°51'0 0.0
2018-Sep-10 06:04N 50°58' E 001°51'0 0.0
2018-Sep-10 06:00N 50°58' E 001°51'0 0.0
2018-Sep-10 05:30N 50°58' E 001°51'0 0.0
2018-Sep-10 05:03N 50°58' E 001°51'0 0.0
2018-Sep-10 05:01N 50°58' E 001°51'0 0.0
2018-Sep-10 04:31N 50°58' E 001°51'0 0.0
2018-Sep-10 04:04N 50°58' E 001°51'0 0.0
2018-Sep-10 04:00N 50°58' E 001°51'0 0.0
2018-Sep-10 03:31N 50°58' E 001°51'0 0.0
2018-Sep-10 03:04N 50°58' E 001°51'0 0.0
2018-Sep-10 03:01N 50°58' E 001°51'0 0.0
2018-Sep-10 02:31N 50°58' E 001°51'0 0.0
2018-Sep-10 02:03N 50°58' E 001°51'0 0.0
2018-Sep-10 02:01N 50°58' E 001°51'0 0.0
2018-Sep-10 01:30N 50°58' E 001°51'0 0.0
2018-Sep-10 01:04N 50°58' E 001°51'0 0.0
2018-Sep-10 01:01N 50°58' E 001°51'0 0.0
2018-Sep-10 00:31N 50°58' E 001°51'0 0.0
2018-Sep-10 00:04N 50°58' E 001°51'0 0.1
2018-Sep-10 00:01N 50°58' E 001°51'0 0.0
2018-Sep-09 23:31N 50°58' E 001°51'0 0.0
2018-Sep-09 23:04N 50°58' E 001°51'0 0.0
2018-Sep-09 23:01N 50°58' E 001°51'0 0.0
2018-Sep-09 22:31N 50°58' E 001°51'0 0.0
2018-Sep-09 22:03N 50°58' E 001°51'0 1.1
2018-Sep-09 22:01N 50°58' E 001°51'0 0.2
2018-Sep-09 21:30N 50°58' E 001°51'0 0.0
2018-Sep-09 21:04N 50°58' E 001°51'0 0.0
2018-Sep-09 21:00N 50°58' E 001°51'0 0.0
2018-Sep-09 20:30N 50°58' E 001°51'0 0.0
2018-Sep-09 20:04N 50°58' E 001°51'0 0.0
2018-Sep-09 20:01N 50°58' E 001°51'0 0.2
2018-Sep-09 19:30N 50°58' E 001°51'715.8
2018-Sep-09 19:03N 50°58' E 001°40'118.0
2018-Sep-09 19:00N 50°58' E 001°38'1019.2
2018-Sep-09 18:30N 51°04' E 001°26'5 9.3
2018-Sep-09 17:58N 51°07' E 001°20'0 0.0
2018-Sep-09 17:31N 51°07' E 001°20'4 8.3
2018-Sep-09 17:04N 51°06' E 001°26'119.2
2018-Sep-09 17:01N 51°06' E 001°27'1019.3
2018-Sep-09 16:31N 51°01' E 001°40'716.0
2018-Sep-09 16:04N 50°58' E 001°51'0 2.0
2018-Sep-09 16:00N 50°58' E 001°51'0 0.0
2018-Sep-09 15:30N 50°58' E 001°51'1 1.8
2018-Sep-09 15:04N 50°58' E 001°50'117.8
2018-Sep-09 15:00N 50°58' E 001°48'918.4
2018-Sep-09 14:30N 51°01' E 001°35'1019.7
2018-Sep-09 14:00N 51°07' E 001°22'1 2.4
2018-Sep-09 13:30N 51°07' E 001°20'0 0.1
2018-Sep-09 13:03N 51°07' E 001°20'0 1.9
2018-Sep-09 13:01N 51°07' E 001°20'611.3
2018-Sep-09 12:30N 51°05' E 001°29'818.3
2018-Sep-09 12:03N 51°01' E 001°40'118.0
2018-Sep-09 12:00N 51°01' E 001°41'713.9
2018-Sep-09 11:30N 50°58' E 001°51'0 0.3
2018-Sep-09 11:04N 50°58' E 001°51'0 0.0
2018-Sep-09 11:00N 50°58' E 001°51'0 0.0
2018-Sep-09 10:31N 50°58' E 001°51'614.4
2018-Sep-09 10:03N 50°58' E 001°41'121.2
2018-Sep-09 10:00N 50°59' E 001°39'1019.5
2018-Sep-09 09:30N 51°04' E 001°26'612.3
2018-Sep-09 09:04N 51°07' E 001°20'0 0.0
2018-Sep-09 09:00N 51°07' E 001°20'0 0.0
2018-Sep-09 08:30N 51°07' E 001°20'0 0.1
2018-Sep-09 08:04N 51°07' E 001°20'0 0.9
2018-Sep-09 08:00N 51°07' E 001°20'714.4
2018-Sep-09 07:30N 51°05' E 001°31'919.9
2018-Sep-09 07:04N 50°59' E 001°42'120.9
2018-Sep-09 07:00N 50°59' E 001°43'5 9.7
2018-Sep-09 06:31N 50°58' E 001°51'0 0.0
2018-Sep-09 06:04N 50°58' E 001°51'0 0.0
2018-Sep-09 06:00N 50°58' E 001°51'0 0.0
2018-Sep-09 05:31N 50°58' E 001°51'0 0.0
2018-Sep-09 05:04N 50°58' E 001°51'0 0.0
2018-Sep-09 05:01N 50°58' E 001°51'1 1.4
2018-Sep-09 04:30N 50°58' E 001°52'0 0.0
2018-Sep-09 04:04N 50°58' E 001°52'0 0.0
2018-Sep-09 04:00N 50°58' E 001°52'0 0.0
2018-Sep-09 03:31N 50°58' E 001°52'  
Track history (hours):
 
Tides and Currents Weather Stations Pressure Air Temp Water Temp Dewpoint Dewpoint Depression Visibility Wind Speed Wind Dir Waves Ship Positions

Pride Of Burgundy

Operator: P & O Ferries

Last reported at 2018-Sep-19 03:30 UTC. Time now 2018-Sep-19 03:42 UTC.
Position N 51°07' E 001°20'.

Length 180 m; draft 6.2 m.

Type: Passenger vessel. MMSI: 232001470.

Date/timePositionNaut miles runAvg speedWind from/ knotsBaromVisibWave heightAir tempDewpointWater temp
2018-Sep-19 03:30N 51°07' E 001°20'0 0.2
2018-Sep-19 03:02N 51°07' E 001°20'0 2.2
2018-Sep-19 03:00N 51°07' E 001°20'612.7
2018-Sep-19 02:30N 51°06' E 001°30'612.3
2018-Sep-19 02:03N 51°02' E 001°37'113.5
2018-Sep-19 02:00N 51°02' E 001°38'815.7
2018-Sep-19 01:30N 50°58' E 001°49'1 3.3
2018-Sep-19 01:03N 50°58' E 001°51'0 0.0
2018-Sep-19 01:00N 50°58' E 001°51'0 0.0
2018-Sep-19 00:30N 50°58' E 001°51'0 0.0
2018-Sep-19 00:03N 50°58' E 001°51'0 0.0
2018-Sep-19 00:00N 50°58' E 001°51'0 0.0
2018-Sep-18 23:30N 50°58' E 001°51'0 0.0
2018-Sep-18 23:03N 50°58' E 001°51'0 0.0
2018-Sep-18 23:00N 50°58' E 001°51'0 0.0
2018-Sep-18 22:30N 50°58' E 001°51'0 0.0
2018-Sep-18 22:03N 50°58' E 001°51'0 0.0
2018-Sep-18 22:00N 50°58' E 001°51'0 0.2
2018-Sep-18 21:30N 50°58' E 001°51'715.5
2018-Sep-18 21:04N 50°59' E 001°40'120.0
2018-Sep-18 21:00N 50°60' E 001°39'918.9
2018-Sep-18 20:30N 51°05' E 001°27'510.0
2018-Sep-18 20:04N 51°07' E 001°20'0 0.1
2018-Sep-18 20:00N 51°07' E 001°20'0 0.0
2018-Sep-18 19:30N 51°07' E 001°20'2 4.2
2018-Sep-18 19:03N 51°07' E 001°23'110.6
2018-Sep-18 19:00N 51°07' E 001°24'917.9
2018-Sep-18 18:30N 51°03' E 001°36'817.9
2018-Sep-18 18:03N 50°58' E 001°47'117.0
2018-Sep-18 18:00N 50°58' E 001°48'2 3.6
2018-Sep-18 17:30N 50°58' E 001°51'0 0.0
2018-Sep-18 17:03N 50°58' E 001°51'0 0.0
2018-Sep-18 17:00N 50°58' E 001°51'713.7
2018-Sep-18 16:30N 50°59' E 001°40'919.6
2018-Sep-18 16:04N 51°04' E 001°29'119.6
2018-Sep-18 16:01N 51°04' E 001°27'610.5
2018-Sep-18 15:29N 51°07' E 001°20'0 0.0
2018-Sep-18 15:02N 51°07' E 001°20'0 0.0
2018-Sep-18 15:00N 51°07' E 001°20'9 9.0
2018-Sep-18 14:03N 51°05' E 001°33'119.0
2018-Sep-18 14:00N 51°04' E 001°34'918.2
2018-Sep-18 13:30N 50°58' E 001°45'4 9.1
2018-Sep-18 13:03N 50°58' E 001°52'0 0.0
2018-Sep-18 13:00N 50°58' E 001°52'0 0.0
2018-Sep-18 12:30N 50°58' E 001°52'0 1.1
2018-Sep-18 12:03N 50°58' E 001°51'0 7.3
2018-Sep-18 12:00N 50°58' E 001°50'815.6
2018-Sep-18 11:31N 50°59' E 001°38'919.5
2018-Sep-18 11:03N 51°04' E 001°26'119.8
2018-Sep-18 11:01N 51°04' E 001°25'4 8.4
2018-Sep-18 10:30N 51°07' E 001°20'0 0.0
2018-Sep-18 10:03N 51°07' E 001°20'0 0.0
2018-Sep-18 10:00N 51°07' E 001°20'0 0.2
2018-Sep-18 09:30N 51°07' E 001°20'3 7.3
2018-Sep-18 09:03N 51°08' E 001°25'0 0.5
2018-Sep-18 09:00N 51°08' E 001°25'0 0.6
2018-Sep-18 08:30N 51°08' E 001°25'1 2.5
2018-Sep-18 08:03N 51°09' E 001°26'112.2
2018-Sep-18 08:00N 51°08' E 001°27'612.7
2018-Sep-18 07:30N 51°04' E 001°34'817.0
2018-Sep-18 07:03N 50°59' E 001°44'118.3
2018-Sep-18 07:00N 50°58' E 001°45'4 8.0
2018-Sep-18 06:30N 50°58' E 001°51'0 0.0
2018-Sep-18 06:03N 50°58' E 001°51'0 0.0
2018-Sep-18 06:00N 50°58' E 001°51'2 3.3
2018-Sep-18 05:30N 50°58' E 001°48'919.6
2018-Sep-18 05:03N 51°01' E 001°35'119.5
2018-Sep-18 05:00N 51°01' E 001°34'1019.1
2018-Sep-18 04:30N 51°07' E 001°21'1 2.2
2018-Sep-18 04:03N 51°07' E 001°20'0 0.1
2018-Sep-18 04:00N 51°07' E 001°20'0 0.0
2018-Sep-18 03:30N 51°07' E 001°20'1 3.3
2018-Sep-18 03:03N 51°07' E 001°22'118.6
2018-Sep-18 03:00N 51°06' E 001°24'713.7
2018-Sep-18 02:30N 51°03' E 001°33'613.1
2018-Sep-18 02:03N 50°59' E 001°40'113.4
2018-Sep-18 02:00N 50°59' E 001°41'612.2
2018-Sep-18 01:30N 50°58' E 001°51'0 0.5
2018-Sep-18 01:03N 50°58' E 001°51'0 0.0
2018-Sep-18 01:00N 50°58' E 001°51'0 0.0
2018-Sep-18 00:30N 50°58' E 001°51'0 0.0
2018-Sep-18 00:03N 50°58' E 001°51'0 0.0
2018-Sep-18 00:00N 50°58' E 001°51'0 0.0
2018-Sep-17 23:30N 50°58' E 001°51'0 0.0
2018-Sep-17 23:03N 50°58' E 001°51'0 0.0
2018-Sep-17 23:01N 50°58' E 001°51'0 0.9
2018-Sep-17 22:30N 50°58' E 001°52'0 0.4
2018-Sep-17 22:03N 50°58' E 001°52'0 0.0
2018-Sep-17 22:00N 50°58' E 001°52'0 0.0
2018-Sep-17 21:30N 50°58' E 001°52'0 0.0
2018-Sep-17 21:03N 50°58' E 001°52'0 0.0
2018-Sep-17 21:01N 50°58' E 001°52'0 0.0
2018-Sep-17 20:30N 50°58' E 001°52'0 0.0
2018-Sep-17 20:03N 50°58' E 001°52'0 3.1
2018-Sep-17 20:00N 50°58' E 001°52'0 0.9
2018-Sep-17 19:30N 50°58' E 001°51'816.8
2018-Sep-17 19:03N 50°59' E 001°39'120.5
2018-Sep-17 19:01N 50°59' E 001°37'918.9
2018-Sep-17 18:30N 51°05' E 001°26'4 9.7
2018-Sep-17 18:03N 51°07' E 001°20'0 0.0
2018-Sep-17 18:00N 51°07' E 001°20'0 0.0
2018-Sep-17 17:30N 51°07' E 001°20'3 5.8
2018-Sep-17 17:03N 51°07' E 001°24'118.7
2018-Sep-17 17:00N 51°06' E 001°26'1019.3
2018-Sep-17 16:30N 51°01' E 001°38'816.9
2018-Sep-17 16:03N 50°58' E 001°50'113.4
2018-Sep-17 16:00N 50°58' E 001°51'0 0.6
2018-Sep-17 15:30N 50°58' E 001°51'0 0.4
2018-Sep-17 15:03N 50°58' E 001°51'0 8.3
2018-Sep-17 15:00N 50°58' E 001°50'918.6
2018-Sep-17 14:31N 51°01' E 001°36'1019.5
2018-Sep-17 14:00N 51°06' E 001°23'2 4.3
2018-Sep-17 13:30N 51°07' E 001°20'0 0.0
2018-Sep-17 13:03N 51°07' E 001°20'0 0.1
2018-Sep-17 13:00N 51°07' E 001°20'5 9.6
2018-Sep-17 12:30N 51°06' E 001°27'919.9
2018-Sep-17 12:04N 51°02' E 001°40'119.5
2018-Sep-17 12:01N 51°01' E 001°41'713.9
2018-Sep-17 11:30N 50°58' E 001°51'0 0.0
2018-Sep-17 11:03N 50°58' E 001°51'0 0.0
2018-Sep-17 11:00N 50°58' E 001°51'0 0.0
2018-Sep-17 10:30N 50°58' E 001°51'512.1
2018-Sep-17 10:03N 50°58' E 001°42'118.5
2018-Sep-17 10:00N 50°58' E 001°41'1019.4
2018-Sep-17 09:30N 51°03' E 001°27'613.8
2018-Sep-17 09:03N 51°07' E 001°20'0 0.0
2018-Sep-17 09:00N 51°07' E 001°20'0 0.0
2018-Sep-17 08:31N 51°07' E 001°20'2 5.3
2018-Sep-17 08:03N 51°07' E 001°24'115.9
2018-Sep-17 08:00N 51°07' E 001°25'1019.5
2018-Sep-17 07:30N 51°01' E 001°38'818.3
2018-Sep-17 07:03N 50°58' E 001°50'111.1
2018-Sep-17 07:00N 50°58' E 001°51'0 0.9
2018-Sep-17 06:30N 50°58' E 001°52'0 0.0
2018-Sep-17 06:03N 50°58' E 001°52'0 0.0
2018-Sep-17 06:00N 50°58' E 001°52'0 0.0
2018-Sep-17 05:28N 50°58' E 001°52'0 0.0
2018-Sep-17 05:03N 50°58' E 001°52'0 0.0
2018-Sep-17 05:00N 50°58' E 001°52'0 0.0
2018-Sep-17 04:28N 50°58' E 001°52'0 0.0
2018-Sep-17 04:03N 50°58' E 001°52'0 0.0
2018-Sep-17 04:00N 50°58' E 001°52'0 0.0
2018-Sep-17 03:30N 50°58' E 001°52'0 0.0
2018-Sep-17 03:03N 50°58' E 001°52'0 0.0
2018-Sep-17 03:00N 50°58' E 001°52'0 0.0
2018-Sep-17 02:30N 50°58' E 001°52'0 0.0
2018-Sep-17 02:03N 50°58' E 001°52'0 0.0
2018-Sep-17 02:00N 50°58' E 001°52'0 0.0
2018-Sep-17 01:30N 50°58' E 001°52'0 0.0
2018-Sep-17 01:03N 50°58' E 001°52'0 0.0
2018-Sep-17 01:00N 50°58' E 001°52'0 0.0
2018-Sep-17 00:30N 50°58' E 001°52'0 0.0
2018-Sep-17 00:03N 50°58' E 001°52'0 0.0
2018-Sep-17 00:00N 50°58' E 001°52'0 0.0
2018-Sep-16 23:30N 50°58' E 001°52'0 0.0
2018-Sep-16 23:03N 50°58' E 001°52'0 0.0
2018-Sep-16 23:00N 50°58' E 001°52'0 0.0
2018-Sep-16 22:30N 50°58' E 001°52'0 0.0
2018-Sep-16 22:03N 50°58' E 001°52'0 0.0
2018-Sep-16 22:00N 50°58' E 001°52'0 0.0
2018-Sep-16 21:30N 50°58' E 001°52'0 0.0
2018-Sep-16 21:03N 50°58' E 001°52'0 0.0
2018-Sep-16 21:00N 50°58' E 001°52'0 0.0
2018-Sep-16 20:30N 50°58' E 001°52'0 0.0
2018-Sep-16 20:03N 50°58' E 001°52'0 0.0
2018-Sep-16 20:00N 50°58' E 001°52'0 0.0
2018-Sep-16 19:30N 50°58' E 001°52'511.8
2018-Sep-16 19:04N 50°58' E 001°43'118.4
2018-Sep-16 19:01N 50°59' E 001°42'917.9
2018-Sep-16 18:31N 51°04' E 001°30'715.6
2018-Sep-16 18:03N 51°07' E 001°20'0 0.0
2018-Sep-16 18:00N 51°07' E 001°20'0 0.0
2018-Sep-16 17:30N 51°07' E 001°20'2 5.5
2018-Sep-16 17:03N 51°07' E 001°24'118.0
2018-Sep-16 17:00N 51°07' E 001°25'918.8
2018-Sep-16 16:30N 51°01' E 001°38'817.0
2018-Sep-16 16:03N 50°58' E 001°49'116.2
2018-Sep-16 16:00N 50°58' E 001°50'1 1.4
2018-Sep-16 15:30N 50°58' E 001°51'0 0.0
2018-Sep-16 15:03N 50°58' E 001°51'0 0.0
2018-Sep-16 15:00N 50°58' E 001°51'4 8.5
2018-Sep-16 14:30N 50°58' E 001°44'1817.9
2018-Sep-16 13:30N 51°07' E 001°20'0 0.0
2018-Sep-16 13:03N 51°07' E 001°20'0 0.0
2018-Sep-16 13:00N 51°07' E 001°20'2 3.9
2018-Sep-16 12:30N 51°07' E 001°23'920.0
2018-Sep-16 12:03N 51°02' E 001°36'120.3
2018-Sep-16 12:00N 51°02' E 001°37'918.1
2018-Sep-16 11:31N 50°58' E 001°50'1 1.3
2018-Sep-16 11:03N 50°58' E 001°51'0 0.0
2018-Sep-16 11:00N 50°58' E 001°51'0 0.0
2018-Sep-16 10:30N 50°58' E 001°51'512.1
2018-Sep-16 10:04N 50°58' E 001°42'118.4
2018-Sep-16 10:00N 50°58' E 001°41'1019.0
2018-Sep-16 09:31N 51°02' E 001°27'715.4
2018-Sep-16 09:03N 51°07' E 001°20'0 0.0
2018-Sep-16 09:00N 51°07' E 001°20'0 0.0
2018-Sep-16 08:29N 51°07' E 001°20'0 0.3
2018-Sep-16 08:03N 51°07' E 001°20'0 0.8
2018-Sep-16 08:00N 51°07' E 001°20'816.6
2018-Sep-16 07:30N 51°05' E 001°33'918.9
2018-Sep-16 07:03N 50°59' E 001°42'120.0
2018-Sep-16 07:00N 50°59' E 001°44'5 9.4
2018-Sep-16 06:31N 50°58' E 001°51'0 0.0
2018-Sep-16 06:03N 50°58' E 001°51'0 0.0
2018-Sep-16 06:00N 50°58' E 001°51'3 5.3
2018-Sep-16 05:30N 50°58' E 001°47'919.6
2018-Sep-16 05:03N 51°02' E 001°34'120.6
2018-Sep-16 05:00N 51°02' E 001°33'918.7
2018-Sep-16 04:31N 51°07' E 001°20'0 0.1
2018-Sep-16 04:03N 51°07' E 001°20'0 0.5
2018-Sep-16 04:00N 51°07' E 001°20'816.0
2018-Sep-16 03:30N 51°05' E 001°32'919.1
2018-Sep-16 03:03N 50°59' E 001°43'118.1
2018-Sep-16 03:01N 50°59' E 001°44'5 9.8
2018-Sep-16 02:30N 50°58' E 001°51'0 0.0
2018-Sep-16 02:03N 50°58' E 001°51'0 0.0
2018-Sep-16 02:00N 50°58' E 001°51'0 0.0
2018-Sep-16 01:30N 50°58' E 001°51'511.3
2018-Sep-16 01:04N 50°58' E 001°43'116.4
2018-Sep-16 01:00N 50°59' E 001°42'715.0
2018-Sep-16 00:31N 51°02' E 001°32'715.2
2018-Sep-16 00:03N 51°06' E 001°23'114.0
2018-Sep-16 00:00N 51°07' E 001°22'1 2.8
2018-Sep-15 23:29N 51°07' E 001°20'0 0.2
2018-Sep-15 23:03N 51°07' E 001°20'0 0.0
2018-Sep-15 23:00N 51°07' E 001°20'816.4
2018-Sep-15 22:31N 51°06' E 001°33'614.1
2018-Sep-15 22:03N 51°01' E 001°39'117.0
2018-Sep-15 22:00N 51°00' E 001°40'713.9
2018-Sep-15 21:30N 50°58' E 001°51'0 0.2
2018-Sep-15 21:03N 50°58' E 001°51'0 0.0
2018-Sep-15 21:00N 50°58' E 001°51'0 0.0
2018-Sep-15 20:30N 50°58' E 001°51'510.6
2018-Sep-15 20:03N 50°58' E 001°43'118.9
2018-Sep-15 20:01N 50°58' E 001°42'1019.3
2018-Sep-15 19:30N 51°04' E 001°29'715.1
2018-Sep-15 19:03N 51°07' E 001°20'0 0.0
2018-Sep-15 18:56N 51°07' E 001°20'0 0.0
2018-Sep-15 18:29N 51°07' E 001°20'0 0.0
2018-Sep-15 18:03N 51°07' E 001°20'0 0.0
2018-Sep-15 18:00N 51°07' E 001°20'0 0.0
2018-Sep-15 17:29N 51°07' E 001°20'2 5.1
2018-Sep-15 17:03N 51°07' E 001°24'117.8
2018-Sep-15 17:00N 51°07' E 001°25'918.1
2018-Sep-15 16:30N 51°02' E 001°37'817.4
2018-Sep-15 16:03N 50°58' E 001°48'117.3
2018-Sep-15 16:01N 50°58' E 001°49'1 2.5
2018-Sep-15 15:31N 50°58' E 001°51'0 0.0
2018-Sep-15 15:03N 50°58' E 001°51'915.2
2018-Sep-15 14:29N 50°58' E 001°37'919.1
2018-Sep-15 14:00N 51°04' E 001°26'510.2
2018-Sep-15 13:30N 51°07' E 001°20'0 0.0
2018-Sep-15 13:03N 51°07' E 001°20'0 0.0
2018-Sep-15 13:00N 51°07' E 001°20'4 7.2
2018-Sep-15 12:30N 51°06' E 001°25'919.7
2018-Sep-15 12:03N 51°01' E 001°37'119.7
2018-Sep-15 12:00N 51°01' E 001°39'816.4
2018-Sep-15 11:30N 50°58' E 001°51'0 0.2
2018-Sep-15 11:03N 50°58' E 001°51'0 0.0
2018-Sep-15 11:00N 50°58' E 001°51'0 0.3
2018-Sep-15 10:30N 50°58' E 001°51'715.4
2018-Sep-15 10:03N 50°59' E 001°40'118.0
2018-Sep-15 10:00N 50°59' E 001°38'1019.2
2018-Sep-15 09:30N 51°05' E 001°26'510.1
2018-Sep-15 09:03N 51°07' E 001°20'0 0.0
2018-Sep-15 09:00N 51°07' E 001°20'0 0.0
2018-Sep-15 08:30N 51°07' E 001°20'0 0.7
2018-Sep-15 08:03N 51°07' E 001°21'110.9
2018-Sep-15 08:00N 51°07' E 001°21'816.7
2018-Sep-15 07:30N 51°04' E 001°33'818.9
2018-Sep-15 07:03N 50°58' E 001°44'119.7
2018-Sep-15 07:00N 50°58' E 001°45'4 7.0
2018-Sep-15 06:31N 50°58' E 001°51'0 0.0
2018-Sep-15 06:03N 50°58' E 001°51'0 0.0
2018-Sep-15 06:00N 50°58' E 001°51'4 7.7
2018-Sep-15 05:30N 50°58' E 001°45'919.5
2018-Sep-15 05:03N 51°02' E 001°33'119.6
2018-Sep-15 05:00N 51°02' E 001°31'917.1
2018-Sep-15 04:30N 51°07' E 001°20'0 0.0
2018-Sep-15 04:03N 51°07' E 001°20'0 0.0
2018-Sep-15 04:00N 51°07' E 001°20'0 0.0
2018-Sep-15 03:30N 51°07' E 001°20'0 0.3
2018-Sep-15 03:03N 51°07' E 001°20'0 5.8
2018-Sep-15 03:00N 51°07' E 001°21'713.1
2018-Sep-15 02:30N 51°05' E 001°30'715.7
2018-Sep-15 02:04N 51°01' E 001°40'115.0
2018-Sep-15 02:00N 51°01' E 001°41'613.0
2018-Sep-15 01:30N 50°58' E 001°50'0 1.0
2018-Sep-15 01:03N 50°58' E 001°51'0 0.0
2018-Sep-15 01:00N 50°58' E 001°51'0 0.0
2018-Sep-15 00:30N 50°58' E 001°51'0 0.0
2018-Sep-15 00:03N 50°58' E 001°51'0 0.0
2018-Sep-15 00:00N 50°58' E 001°51'0 0.0
2018-Sep-14 23:31N 50°58' E 001°51'0 0.0
2018-Sep-14 23:03N 50°58' E 001°51'0 0.0
2018-Sep-14 23:00N 50°58' E 001°51'0 0.0
2018-Sep-14 22:30N 50°58' E 001°51'0 0.0
2018-Sep-14 22:03N 50°58' E 001°51'0 0.0
2018-Sep-14 22:00N 50°58' E 001°51'0 0.0
2018-Sep-14 21:30N 50°58' E 001°51'0 0.0
2018-Sep-14 21:04N 50°58' E 001°51'0 0.0
2018-Sep-14 21:01N 50°58' E 001°51'0 0.0
2018-Sep-14 20:31N 50°58' E 001°51'0 0.0
2018-Sep-14 20:04N 50°58' E 001°51'0 0.0
2018-Sep-14 20:00N 50°58' E 001°51'2 4.8
2018-Sep-14 19:30N 50°58' E 001°47'818.2
2018-Sep-14 19:04N 50°58' E 001°34'119.9
2018-Sep-14 19:01N 50°59' E 001°33'1019.4
2018-Sep-14 18:30N 51°06' E 001°23'2 5.4
2018-Sep-14 18:03N 51°07' E 001°20'0 0.0
2018-Sep-14 18:00N 51°07' E 001°20'0 0.2
2018-Sep-14 17:31N 51°07' E 001°20'614.3
2018-Sep-14 17:03N 51°08' E 001°30'117.0
2018-Sep-14 17:00N 51°08' E 001°32'815.1
2018-Sep-14 16:30N 51°01' E 001°39'715.7
2018-Sep-14 16:03N 50°58' E 001°49'115.2
2018-Sep-14 16:01N 50°58' E 001°50'1 1.4
2018-Sep-14 15:30N 50°58' E 001°51'0 0.0
2018-Sep-14 15:03N 50°58' E 001°51'0 1.8
2018-Sep-14 15:01N 50°58' E 001°51'917.3
2018-Sep-14 14:30N 51°00' E 001°38'1019.8
2018-Sep-14 14:01N 51°05' E 001°24'3 6.3
2018-Sep-14 13:30N 51°07' E 001°20'0 0.0
2018-Sep-14 13:03N 51°07' E 001°20'0 0.1
2018-Sep-14 13:00N 51°07' E 001°20'4 8.7
2018-Sep-14 12:31N 51°06' E 001°26'919.5
2018-Sep-14 12:04N 51°01' E 001°38'119.4
2018-Sep-14 12:01N 51°00' E 001°39'815.5
2018-Sep-14 11:30N 50°58' E 001°51'0 0.4
2018-Sep-14 11:03N 50°58' E 001°51'0 0.1
2018-Sep-14 11:00N 50°58' E 001°51'0 0.0
2018-Sep-14 10:30N 50°58' E 001°51'510.5
2018-Sep-14 10:04N 50°58' E 001°44'117.3
2018-Sep-14 10:01N 50°58' E 001°42'917.9
2018-Sep-14 09:31N 51°03' E 001°30'817.2
2018-Sep-14 09:03N 51°07' E 001°20'0 0.3
2018-Sep-14 09:00N 51°07' E 001°20'0 0.0
2018-Sep-14 08:30N 51°07' E 001°20'0 0.0
2018-Sep-14 08:03N 51°07' E 001°20'0 1.1
2018-Sep-14 08:00N 51°07' E 001°20'714.9
2018-Sep-14 07:30N 51°05' E 001°31'818.5
2018-Sep-14 07:03N 50°60' E 001°41'119.6
2018-Sep-14 07:00N 50°59' E 001°42'511.0
2018-Sep-14 06:30N 50°58' E 001°51'0 0.0
2018-Sep-14 06:03N 50°58' E 001°51'0 0.0
2018-Sep-14 06:00N 50°58' E 001°51'0 0.1
2018-Sep-14 05:30N 50°58' E 001°51'715.7
2018-Sep-14 05:04N 50°59' E 001°40'119.9
2018-Sep-14 05:00N 50°59' E 001°38'1019.7
2018-Sep-14 04:30N 51°05' E 001°25'4 9.2
2018-Sep-14 04:03N 51°07' E 001°20'0 0.0
2018-Sep-14 04:00N 51°07' E 001°20'0 0.0
2018-Sep-14 03:30N 51°07' E 001°20'0 0.0
2018-Sep-14 03:03N 51°07' E 001°20'0 2.1
2018-Sep-14 03:01N 51°07' E 001°20'612.8
2018-Sep-14 02:31N 51°05' E 001°30'716.5
2018-Sep-14 02:03N 51°01' E 001°39'116.3
2018-Sep-14 02:01N 51°00' E 001°40'713.9
2018-Sep-14 01:31N 50°58' E 001°51'0 0.5
2018-Sep-14 01:03N 50°58' E 001°51'0 0.0
2018-Sep-14 01:00N 50°58' E 001°51'0 0.0
2018-Sep-14 00:30N 50°58' E 001°51'0 0.0
2018-Sep-14 00:03N 50°58' E 001°51'0 0.0
2018-Sep-14 00:00N 50°58' E 001°51'0 0.0
2018-Sep-13 23:30N 50°58' E 001°51'0 0.0
2018-Sep-13 23:03N 50°58' E 001°51'0 0.0
2018-Sep-13 23:00N 50°58' E 001°51'0 0.0
2018-Sep-13 22:30N 50°58' E 001°51'0 0.0
2018-Sep-13 22:03N 50°58' E 001°51'0 0.0
2018-Sep-13 22:00N 50°58' E 001°51'0 0.0
2018-Sep-13 21:30N 50°58' E 001°51'0 0.0
2018-Sep-13 21:03N 50°58' E 001°51'0 0.0
2018-Sep-13 21:00N 50°58' E 001°51'0 0.0
2018-Sep-13 20:31N 50°58' E 001°51'0 0.0
2018-Sep-13 20:03N 50°58' E 001°51'0 0.0
2018-Sep-13 20:00N 50°58' E 001°51'0 0.5
2018-Sep-13 19:31N 50°58' E 001°51'715.6
2018-Sep-13 19:03N 50°59' E 001°40'119.4
2018-Sep-13 19:01N 50°60' E 001°38'1019.4
2018-Sep-13 18:31N 51°05' E 001°26'4 9.2
2018-Sep-13 18:03N 51°07' E 001°20'0 0.0
2018-Sep-13 18:00N 51°07' E 001°20'0 0.0
2018-Sep-13 17:30N 51°07' E 001°20'1 1.5
2018-Sep-13 17:04N 51°07' E 001°21'113.8
2018-Sep-13 17:00N 51°07' E 001°22'918.8
2018-Sep-13 16:31N 51°02' E 001°35'818.5
2018-Sep-13 16:04N 50°58' E 001°47'118.1
2018-Sep-13 16:00N 50°58' E 001°48'2 3.6
2018-Sep-13 15:30N 50°58' E 001°51'0 0.0
2018-Sep-13 15:03N 50°58' E 001°51'0 1.7
2018-Sep-13 15:00N 50°58' E 001°51'816.8
2018-Sep-13 14:30N 50°59' E 001°38'1019.3
2018-Sep-13 14:00N 51°04' E 001°25'5 9.0
2018-Sep-13 13:30N 51°07' E 001°20'0 0.0
2018-Sep-13 13:03N 51°07' E 001°20'0 0.0
2018-Sep-13 13:00N 51°07' E 001°20'4 7.2
2018-Sep-13 12:30N 51°06' E 001°25'919.3
2018-Sep-13 12:03N 51°01' E 001°37'119.2
2018-Sep-13 12:00N 51°01' E 001°38'816.9
2018-Sep-13 11:30N 50°58' E 001°51'0 0.9
2018-Sep-13 11:03N 50°58' E 001°52'0 0.0
2018-Sep-13 11:00N 50°58' E 001°52'0 0.1
2018-Sep-13 10:31N 50°58' E 001°52'613.4
2018-Sep-13 10:04N 50°58' E 001°42'117.1
2018-Sep-13 10:01N 50°59' E 001°41'918.3
2018-Sep-13 09:30N 51°03' E 001°28'614.4
2018-Sep-13 09:03N 51°07' E 001°20'0 1.2
2018-Sep-13 09:00N 51°07' E 001°20'0 0.0
2018-Sep-13 08:29N 51°07' E 001°20'0 0.0
2018-Sep-13 08:03N 51°07' E 001°20'0 0.0
2018-Sep-13 08:00N 51°07' E 001°20'612.2
2018-Sep-13 07:30N 51°05' E 001°29'919.6
2018-Sep-13 07:03N 50°60' E 001°40'121.1
2018-Sep-13 07:00N 50°59' E 001°42'611.9
2018-Sep-13 06:30N 50°58' E 001°51'0 0.0
2018-Sep-13 06:03N 50°58' E 001°51'0 0.0
2018-Sep-13 06:00N 50°58' E 001°51'1 2.6
2018-Sep-13 05:30N 50°58' E 001°49'817.8
2018-Sep-13 05:03N 51°01' E 001°37'119.5
2018-Sep-13 05:00N 51°01' E 001°36'917.9
2018-Sep-13 04:30N 51°06' E 001°24'3 5.8
2018-Sep-13 04:03N 51°07' E 001°20'0 0.0
2018-Sep-13 04:00N 51°07' E 001°20'0 0.0
2018-Sep-13 03:30N 51°07' E 001°20'0 1.1
2018-Sep-13 03:03N 51°07' E 001°21'0 8.9
2018-Sep-13 03:00N 51°07' E 001°21'713.9
2018-Sep-13 02:30N 51°04' E 001°31'715.9
2018-Sep-13 02:04N 51°00' E 001°41'116.3
2018-Sep-13 02:01N 50°60' E 001°42'611.6
2018-Sep-13 01:30N 50°58' E 001°51'0 0.2
2018-Sep-13 01:03N 50°58' E 001°51'0 0.0
2018-Sep-13 01:00N 50°58' E 001°51'0 0.0
2018-Sep-13 00:30N 50°58' E 001°51'0 0.0
2018-Sep-13 00:03N 50°58' E 001°51'0 0.0
2018-Sep-13 00:00N 50°58' E 001°51'0 0.0
2018-Sep-12 23:30N 50°58' E 001°51'0 0.0
2018-Sep-12 23:03N 50°58' E 001°51'0 0.0
2018-Sep-12 23:00N 50°58' E 001°51'0 0.0
2018-Sep-12 22:30N 50°58' E 001°51'0 0.0
2018-Sep-12 22:03N 50°58' E 001°51'0 0.0
2018-Sep-12 22:00N 50°58' E 001°51'0 0.0
2018-Sep-12 21:30N 50°58' E 001°51'0 0.0
2018-Sep-12 21:03N 50°58' E 001°51'0 0.0
2018-Sep-12 21:00N 50°58' E 001°51'0 0.0
2018-Sep-12 20:30N 50°58' E 001°51'0 0.0
2018-Sep-12 20:03N 50°58' E 001°51'0 0.0
2018-Sep-12 20:00N 50°58' E 001°51'2 4.8
2018-Sep-12 19:30N 50°58' E 001°47'817.5
2018-Sep-12 19:03N 51°00' E 001°35'119.1
2018-Sep-12 19:00N 51°01' E 001°34'917.8
2018-Sep-12 18:30N 51°06' E 001°23'2 4.6
2018-Sep-12 18:03N 51°07' E 001°20'0 0.0
2018-Sep-12 18:00N 51°07' E 001°20'0 0.2
2018-Sep-12 17:30N 51°07' E 001°20'816.8
2018-Sep-12 17:03N 51°04' E 001°31'119.6
2018-Sep-12 17:01N 51°04' E 001°32'1019.1
2018-Sep-12 16:30N 50°58' E 001°45'4 8.7
2018-Sep-12 16:03N 50°58' E 001°51'0 0.0
2018-Sep-12 16:00N 50°58' E 001°51'0 0.0
2018-Sep-12 15:30N 50°58' E 001°51'4 9.6
2018-Sep-12 15:03N 50°58' E 001°44'120.6
2018-Sep-12 15:01N 50°58' E 001°43'1020.0
2018-Sep-12 14:30N 51°03' E 001°29'714.2
2018-Sep-12 14:00N 51°07' E 001°20'0 0.0
2018-Sep-12 13:30N 51°07' E 001°20'0 0.1
2018-Sep-12 13:01N 51°07' E 001°20'0 3.5
2018-Sep-12 13:00N 51°07' E 001°20'714.0
2018-Sep-12 12:30N 51°04' E 001°30'919.0
2018-Sep-12 12:03N 50°60' E 001°42'118.3
2018-Sep-12 12:00N 50°59' E 001°43'611.4
2018-Sep-12 11:30N 50°58' E 001°52'0 0.0
2018-Sep-12 11:03N 50°58' E 001°52'0 0.0
2018-Sep-12 11:00N 50°58' E 001°52'0 0.7
2018-Sep-12 10:30N 50°58' E 001°51'715.1
2018-Sep-12 10:03N 50°59' E 001°40'117.7
2018-Sep-12 10:00N 50°59' E 001°39'918.7
2018-Sep-12 09:30N 51°05' E 001°27'511.3
2018-Sep-12 09:03N 51°07' E 001°20'0 0.0
2018-Sep-12 09:00N 51°07' E 001°20'0 0.0
2018-Sep-12 08:30N 51°07' E 001°20'0 0.1
2018-Sep-12 08:03N 51°07' E 001°20'0 1.0
2018-Sep-12 08:00N 51°07' E 001°20'817.0
2018-Sep-12 07:30N 51°04' E 001°32'919.1
2018-Sep-12 07:03N 50°59' E 001°43'120.4
2018-Sep-12 07:00N 50°58' E 001°44'4 8.2
2018-Sep-12 06:31N 50°58' E 001°51'0 0.0
2018-Sep-12 06:03N 50°58' E 001°51'0 0.0
2018-Sep-12 06:00N 50°58' E 001°51'3 5.9
2018-Sep-12 05:30N 50°58' E 001°46'818.1
2018-Sep-12 05:04N 50°59' E 001°34'119.4
2018-Sep-12 05:01N 51°00' E 001°32'1019.6
2018-Sep-12 04:31N 51°07' E 001°21'1 2.0
2018-Sep-12 04:03N 51°07' E 001°20'0 0.0
2018-Sep-12 04:00N 51°07' E 001°20'0 0.0
2018-Sep-12 03:30N 51°07' E 001°20'0 0.3
2018-Sep-12 03:03N 51°07' E 001°20'0 6.1
2018-Sep-12 03:00N 51°07' E 001°21'815.4
2018-Sep-12 02:31N 51°04' E 001°32'716.3
2018-Sep-12 02:04N 51°00' E 001°41'115.8
2018-Sep-12 02:00N 50°60' E 001°42'611.2
2018-Sep-12 01:30N 50°58' E 001°51'0 0.0
2018-Sep-12 01:04N 50°58' E 001°51'0 0.0
2018-Sep-12 01:01N 50°58' E 001°51'0 0.0
2018-Sep-12 00:31N 50°58' E 001°51'0 0.0
2018-Sep-12 00:04N 50°58' E 001°51'0 0.0
2018-Sep-12 00:00N 50°58' E 001°51'0 0.0
2018-Sep-11 23:30N 50°58' E 001°51'0 0.0
2018-Sep-11 23:03N 50°58' E 001°51'0 0.0
2018-Sep-11 23:00N 50°58' E 001°51'0 0.0
2018-Sep-11 22:30N 50°58' E 001°51'0 0.0
2018-Sep-11 22:03N 50°58' E 001°51'0 0.0
2018-Sep-11 22:00N 50°58' E 001°51'0 0.0
2018-Sep-11 21:30N 50°58' E 001°51'0 0.0
2018-Sep-11 21:03N 50°58' E 001°51'0 0.0
2018-Sep-11 21:01N 50°58' E 001°51'0 0.0
2018-Sep-11 20:30N 50°58' E 001°51'0 0.1
2018-Sep-11 20:04N 50°58' E 001°51'0 4.7
2018-Sep-11 20:00N 50°58' E 001°51'816.1
2018-Sep-11 19:31N 50°59' E 001°38'919.1
2018-Sep-11 19:03N 51°04' E 001°27'119.2
2018-Sep-11 19:00N 51°05' E 001°25'4 8.3
2018-Sep-11 18:29N 51°07' E 001°20'0 0.0
2018-Sep-11 17:59N 51°07' E 001°20'5 9.8
2018-Sep-11 17:30N 51°06' E 001°27'818.6
2018-Sep-11 17:03N 51°02' E 001°39'118.5
2018-Sep-11 17:00N 51°01' E 001°40'815.1
2018-Sep-11 16:31N 50°58' E 001°51'0 0.2
2018-Sep-11 16:03N 50°58' E 001°51'0 0.0
2018-Sep-11 16:00N 50°58' E 001°51'0 0.6
2018-Sep-11 15:30N 50°58' E 001°51'918.7
2018-Sep-11 15:03N 50°58' E 001°37'121.5
2018-Sep-11 15:00N 50°58' E 001°36'1314.1
2018-Sep-11 14:03N 51°07' E 001°20'0 0.0
2018-Sep-11 14:00N 51°07' E 001°20'0 0.0
2018-Sep-11 13:30N 51°07' E 001°20'1 2.4
2018-Sep-11 13:03N 51°07' E 001°22'115.5
2018-Sep-11 13:00N 51°07' E 001°23'816.6
2018-Sep-11 12:30N 51°03' E 001°35'817.0
2018-Sep-11 12:03N 50°58' E 001°44'116.2
2018-Sep-11 12:01N 50°58' E 001°45'4 7.6
2018-Sep-11 11:29N 50°58' E 001°52'0 0.0
2018-Sep-11 11:03N 50°58' E 001°52'0 0.0
2018-Sep-11 11:00N 50°58' E 001°52'2 5.0
2018-Sep-11 10:31N 50°58' E 001°48'818.8
2018-Sep-11 10:04N 51°01' E 001°35'119.2
2018-Sep-11 10:00N 51°02' E 001°34'918.6
2018-Sep-11 09:31N 51°07' E 001°22'1 2.5
2018-Sep-11 09:03N 51°07' E 001°20'0 0.0
2018-Sep-11 09:00N 51°07' E 001°20'0 0.0
2018-Sep-11 08:30N 51°07' E 001°20'2 3.4
2018-Sep-11 08:03N 51°07' E 001°22'0 9.1
2018-Sep-11 08:00N 51°07' E 001°23'816.9
2018-Sep-11 07:30N 51°03' E 001°35'919.2
2018-Sep-11 07:03N 50°58' E 001°46'119.3
2018-Sep-11 07:01N 50°58' E 001°47'2 4.5
2018-Sep-11 06:30N 50°58' E 001°51'0 0.0
2018-Sep-11 06:03N 50°58' E 001°51'0 0.2
2018-Sep-11 06:00N 50°58' E 001°51'2 4.9
2018-Sep-11 05:31N 50°58' E 001°47'817.8
2018-Sep-11 05:04N 51°01' E 001°35'119.2
2018-Sep-11 05:01N 51°01' E 001°34'918.9
2018-Sep-11 04:31N 51°07' E 001°22'1 2.5
2018-Sep-11 04:03N 51°07' E 001°20'0 0.0
2018-Sep-11 04:00N 51°07' E 001°20'0 0.0
2018-Sep-11 03:30N 51°07' E 001°20'0 0.3
2018-Sep-11 03:03N 51°07' E 001°20'0 2.2
2018-Sep-11 03:00N 51°07' E 001°20'815.5
2018-Sep-11 02:30N 51°05' E 001°32'715.9
2018-Sep-11 02:03N 51°00' E 001°40'115.6
2018-Sep-11 02:00N 50°60' E 001°41'612.9
2018-Sep-11 01:30N 50°58' E 001°51'0 0.0
2018-Sep-11 01:03N 50°58' E 001°51'0 0.0
2018-Sep-11 01:00N 50°58' E 001°51'0 0.0
2018-Sep-11 00:30N 50°58' E 001°51'0 0.0
2018-Sep-11 00:03N 50°58' E 001°51'0 0.0
2018-Sep-11 00:00N 50°58' E 001°51'0 0.0
2018-Sep-10 23:30N 50°58' E 001°51'0 0.0
2018-Sep-10 23:03N 50°58' E 001°51'0 0.0
2018-Sep-10 23:00N 50°58' E 001°51'0 0.0
2018-Sep-10 22:30N 50°58' E 001°51'0 0.0
2018-Sep-10 22:03N 50°58' E 001°51'0 0.0
2018-Sep-10 22:00N 50°58' E 001°51'0 0.0
2018-Sep-10 21:30N 50°58' E 001°51'0 0.0
2018-Sep-10 21:03N 50°58' E 001°51'0 0.0
2018-Sep-10 21:00N 50°58' E 001°51'0 0.0
2018-Sep-10 20:30N 50°58' E 001°51'0 0.0
2018-Sep-10 20:03N 50°58' E 001°51'0 0.0
2018-Sep-10 20:00N 50°58' E 001°51'3 5.0
2018-Sep-10 19:30N 50°58' E 001°47'817.6
2018-Sep-10 19:03N 50°60' E 001°35'118.5
2018-Sep-10 19:00N 51°00' E 001°33'1019.1
2018-Sep-10 18:30N 51°07' E 001°22'2 3.4
2018-Sep-10 18:02N 51°07' E 001°20'0 0.0
2018-Sep-10 18:00N 51°07' E 001°20'0 0.0
2018-Sep-10 17:30N 51°07' E 001°20'612.4
2018-Sep-10 17:03N 51°06' E 001°29'119.0
2018-Sep-10 17:00N 51°05' E 001°30'1019.1
2018-Sep-10 16:31N 50°60' E 001°42'613.2
2018-Sep-10 16:03N 50°58' E 001°51'0 0.0
2018-Sep-10 16:00N 50°58' E 001°51'0 0.0
2018-Sep-10 15:30N 50°58' E 001°51'3 7.4
2018-Sep-10 15:03N 50°58' E 001°46'118.6
2018-Sep-10 15:00N 50°58' E 001°44'1819.0
2018-Sep-10 14:04N 51°07' E 001°20'0 0.4
2018-Sep-10 14:01N 51°07' E 001°20'0 0.0
2018-Sep-10 13:30N 51°07' E 001°20'0 0.0
2018-Sep-10 13:03N 51°07' E 001°20'0 0.0
2018-Sep-10 13:00N 51°07' E 001°20'4 8.7
2018-Sep-10 12:30N 51°06' E 001°27'817.9
2018-Sep-10 12:03N 51°02' E 001°38'117.7
2018-Sep-10 12:00N 51°01' E 001°39'815.5
2018-Sep-10 11:30N 50°58' E 001°50'1 2.4
2018-Sep-10 11:02N 50°58' E 001°52'0 0.0
2018-Sep-10 11:00N 50°58' E 001°52'0 0.0
2018-Sep-10 10:30N 50°58' E 001°52'410.1
2018-Sep-10 10:03N 50°58' E 001°45'120.7
2018-Sep-10 10:00N 50°58' E 001°43'1020.0
2018-Sep-10 09:30N 51°03' E 001°29'715.5
2018-Sep-10 09:03N 51°07' E 001°20'0 0.0
2018-Sep-10 08:59N 51°07' E 001°20'0 0.0
2018-Sep-10 08:29N 51°07' E 001°20'0 0.0
2018-Sep-10 08:02N 51°07' E 001°20'0 0.5
2018-Sep-10 08:01N 51°07' E 001°20'714.9
2018-Sep-10 07:30N 51°04' E 001°31'920.0
2018-Sep-10 07:04N 50°59' E 001°43'120.2
2018-Sep-10 07:00N 50°59' E 001°44'4 8.9
2018-Sep-10 06:31N 50°58' E 001°51'0 0.0
2018-Sep-10 06:04N 50°58' E 001°51'0 0.0
2018-Sep-10 06:00N 50°58' E 001°51'0 0.0
2018-Sep-10 05:30N 50°58' E 001°51'0 0.0
2018-Sep-10 05:03N 50°58' E 001°51'0 0.0
2018-Sep-10 05:01N 50°58' E 001°51'0 0.0
2018-Sep-10 04:31N 50°58' E 001°51'0 0.0
2018-Sep-10 04:04N 50°58' E 001°51'0 0.0
2018-Sep-10 04:00N 50°58' E 001°51'0 0.0
2018-Sep-10 03:31N 50°58' E 001°51'0 0.0
2018-Sep-10 03:04N 50°58' E 001°51'0 0.0
2018-Sep-10 03:01N 50°58' E 001°51'0 0.0
2018-Sep-10 02:31N 50°58' E 001°51'0 0.0
2018-Sep-10 02:03N 50°58' E 001°51'0 0.0
2018-Sep-10 02:01N 50°58' E 001°51'0 0.0
2018-Sep-10 01:30N 50°58' E 001°51'0 0.0
2018-Sep-10 01:04N 50°58' E 001°51'0 0.0
2018-Sep-10 01:01N 50°58' E 001°51'0 0.0
2018-Sep-10 00:31N 50°58' E 001°51'0 0.0
2018-Sep-10 00:04N 50°58' E 001°51'0 0.1
2018-Sep-10 00:01N 50°58' E 001°51'0 0.0
2018-Sep-09 23:31N 50°58' E 001°51'0 0.0
2018-Sep-09 23:04N 50°58' E 001°51'0 0.0
2018-Sep-09 23:01N 50°58' E 001°51'0 0.0
2018-Sep-09 22:31N 50°58' E 001°51'0 0.0
2018-Sep-09 22:03N 50°58' E 001°51'0 1.1
2018-Sep-09 22:01N 50°58' E 001°51'0 0.2
2018-Sep-09 21:30N 50°58' E 001°51'0 0.0
2018-Sep-09 21:04N 50°58' E 001°51'0 0.0
2018-Sep-09 21:00N 50°58' E 001°51'0 0.0
2018-Sep-09 20:30N 50°58' E 001°51'0 0.0
2018-Sep-09 20:04N 50°58' E 001°51'0 0.0
2018-Sep-09 20:01N 50°58' E 001°51'0 0.2
2018-Sep-09 19:30N 50°58' E 001°51'715.8
2018-Sep-09 19:03N 50°58' E 001°40'118.0
2018-Sep-09 19:00N 50°58' E 001°38'1019.2
2018-Sep-09 18:30N 51°04' E 001°26'5 9.3
2018-Sep-09 17:58N 51°07' E 001°20'0 0.0
2018-Sep-09 17:31N 51°07' E 001°20'4 8.3
2018-Sep-09 17:04N 51°06' E 001°26'119.2
2018-Sep-09 17:01N 51°06' E 001°27'1019.3
2018-Sep-09 16:31N 51°01' E 001°40'716.0
2018-Sep-09 16:04N 50°58' E 001°51'0 2.0
2018-Sep-09 16:00N 50°58' E 001°51'0 0.0
2018-Sep-09 15:30N 50°58' E 001°51'1 1.8
2018-Sep-09 15:04N 50°58' E 001°50'117.8
2018-Sep-09 15:00N 50°58' E 001°48'918.4
2018-Sep-09 14:30N 51°01' E 001°35'1019.7
2018-Sep-09 14:00N 51°07' E 001°22'1 2.4
2018-Sep-09 13:30N 51°07' E 001°20'0 0.1
2018-Sep-09 13:03N 51°07' E 001°20'0 1.9
2018-Sep-09 13:01N 51°07' E 001°20'611.3
2018-Sep-09 12:30N 51°05' E 001°29'818.3
2018-Sep-09 12:03N 51°01' E 001°40'118.0
2018-Sep-09 12:00N 51°01' E 001°41'713.9
2018-Sep-09 11:30N 50°58' E 001°51'0 0.3
2018-Sep-09 11:04N 50°58' E 001°51'0 0.0
2018-Sep-09 11:00N 50°58' E 001°51'0 0.0
2018-Sep-09 10:31N 50°58' E 001°51'614.4
2018-Sep-09 10:03N 50°58' E 001°41'121.2
2018-Sep-09 10:00N 50°59' E 001°39'1019.5
2018-Sep-09 09:30N 51°04' E 001°26'612.3
2018-Sep-09 09:04N 51°07' E 001°20'0 0.0
2018-Sep-09 09:00N 51°07' E 001°20'0 0.0
2018-Sep-09 08:30N 51°07' E 001°20'0 0.1
2018-Sep-09 08:04N 51°07' E 001°20'0 0.9
2018-Sep-09 08:00N 51°07' E 001°20'714.4
2018-Sep-09 07:30N 51°05' E 001°31'919.9
2018-Sep-09 07:04N 50°59' E 001°42'120.9
2018-Sep-09 07:00N 50°59' E 001°43'5 9.7
2018-Sep-09 06:31N 50°58' E 001°51'0 0.0
2018-Sep-09 06:04N 50°58' E 001°51'0 0.0
2018-Sep-09 06:00N 50°58' E 001°51'0 0.0
2018-Sep-09 05:31N 50°58' E 001°51'0 0.0
2018-Sep-09 05:04N 50°58' E 001°51'0 0.0
2018-Sep-09 05:01N 50°58' E 001°51'1 1.4
2018-Sep-09 04:30N 50°58' E 001°52'0 0.0
2018-Sep-09 04:04N 50°58' E 001°52'0 0.0
2018-Sep-09 04:00N 50°58' E 001°52'0 0.0
2018-Sep-09 03:31N 50°58' E 001°52'  

Dump ship's entire track history